Latest Weather Observations for Coonawarra

IDS60801

Issued at 6:05 pm CST Tuesday 29 July 2014 (issued every 30 minutes, with the page automatically refreshed every 10 minutes)

About weather observations | Map of weather stations | Latest weather observations for SA | Other Formats
Station Details ID: 026091 Name: COONAWARRA Lat: -37.29 Lon: 140.83 Height: 57.0 m
Data from the previous 72 hours. | See also: Recent months at Coonawarra
Date/Time
CST
Temp
°C
App
Temp
°C
Dew
Point
Rel
Hum
%
Delta-T
°C
Wind Press
QNH
hPa
Press
MSL
hPa
Rain
since 9 am
mm
Dir
 
Spd
km/h
Gust
km/h
Spd
kts
Gust
kts
29/06:00pm 14.4 9.1 11.2 81 1.7 WNW 30 50 16 27 1011.1 1011.2 1.6
29/05:40pm 14.2 8.6 12.0 87 1.2 NNW 33 52 18 28 1010.9 - 1.6
29/05:30pm 14.1 10.2 12.1 88 1.1 NNW 24 35 13 19 1010.5 1010.6 1.6
29/05:00pm 14.7 9.9 11.5 81 1.7 NW 28 39 15 21 1010.7 - 1.6
29/04:30pm 15.0 9.3 11.3 78 2.0 NW 32 46 17 25 1010.4 1010.5 1.6
29/04:00pm 15.1 9.5 11.4 78 2.0 WNW 32 48 17 26 1010.2 - 1.6
29/03:48pm 15.0 9.8 11.7 80 1.8 WNW 30 48 16 26 1010.0 - 1.6
29/03:30pm 14.9 9.8 12.0 83 1.6 WNW 30 41 16 22 1009.9 1010.0 1.4
29/03:00pm 14.6 9.3 12.4 87 1.2 NW 32 50 17 27 1009.8 1009.9 1.4
29/02:30pm 15.3 9.3 12.2 82 1.7 NW 35 59 19 32 1009.5 1009.6 1.4
29/02:21pm 15.9 10.5 12.1 78 2.1 WNW 32 50 17 27 1009.4 - 1.4
29/02:00pm 15.3 9.2 11.8 79 1.9 WNW 35 48 19 26 1009.4 - 1.4
29/01:30pm 15.7 9.5 11.4 75 2.3 WNW 35 54 19 29 1009.0 1009.1 1.4
29/01:00pm 15.9 8.7 11.9 77 2.2 WNW 41 59 22 32 1009.1 - 1.4
29/12:30pm 14.8 7.4 12.4 85 1.3 WNW 43 63 23 34 1009.1 1009.2 1.2
29/12:00pm 14.2 8.0 12.6 90 0.9 NW 37 57 20 31 1009.2 1009.3 1.2
29/11:31am 15.1 8.8 12.4 84 1.5 NW 37 56 20 30 1009.6 - 1.2
29/11:30am 15.0 8.3 12.4 84 1.4 NW 39 56 21 30 1009.5 1009.6 1.2
29/11:06am 14.7 9.2 12.5 87 1.2 NW 33 54 18 29 1009.9 - 1.2
29/11:00am 14.8 9.5 12.6 87 1.2 NW 32 46 17 25 1009.9 - 1.2
29/10:36am 13.7 8.8 12.4 92 0.7 NW 30 48 16 26 1010.1 - 0.2
29/10:30am 13.9 8.3 12.2 89 0.9 NW 33 48 18 26 1010.0 1010.1 0.0
29/10:00am 14.3 8.2 11.9 85 1.3 NW 35 56 19 30 1009.9 - 0.0
29/09:30am 13.7 7.6 11.8 88 1.0 NW 35 61 19 33 1009.7 1009.8 0.0
29/09:22am 14.0 7.2 11.8 86 1.2 NW 39 61 21 33 1009.8 - 0.0
29/09:00am 14.1 7.3 11.9 86 1.2 NW 39 52 21 28 1009.6 1009.7 1.8
29/08:46am 13.6 7.4 11.5 87 1.1 NNW 35 54 19 29 1009.4 - 1.8
29/08:30am 13.4 7.2 11.5 88 1.0 NW 35 50 19 27 1009.4 1009.5 1.6
29/08:00am 12.8 7.3 11.7 93 0.6 NNW 32 46 17 25 1009.4 - 1.6
29/07:56am 12.7 7.9 11.6 93 0.6 NNW 28 46 15 25 1009.3 - 1.6
29/07:30am 11.1 6.6 10.1 94 0.5 N 24 28 13 15 1009.3 1009.4 1.2
29/07:00am 11.3 6.4 10.1 92 0.6 NNW 26 35 14 19 1009.6 - 1.0
29/06:30am 10.9 6.8 10.1 95 0.4 NNW 22 30 12 16 1009.5 1009.6 1.0
29/06:00am 10.5 6.7 9.7 95 0.4 NNW 20 28 11 15 1009.5 1009.6 1.0
29/05:30am 10.4 5.4 9.4 93 0.5 N 26 39 14 21 1009.3 1009.4 1.0
29/05:00am 10.8 5.3 9.2 90 0.8 N 28 39 15 21 1008.8 - 0.0
29/04:30am 11.0 5.5 9.2 89 0.9 N 28 39 15 21 1009.0 1009.1 0.0
29/04:00am 10.8 5.6 9.0 89 0.9 N 26 33 14 18 1009.1 - 0.0
29/03:30am 10.8 5.6 8.8 87 1.0 NNW 26 35 14 19 1009.4 1009.5 0.0
29/03:00am 10.8 5.2 8.8 87 1.0 N 28 35 15 19 1009.5 1009.6 0.0
29/02:30am 11.0 5.9 9.2 89 0.9 N 26 37 14 20 1009.6 1009.7 0.0
29/02:00am 11.3 6.2 9.1 86 1.1 NNW 26 35 14 19 1010.0 - 0.0
29/01:30am 11.2 5.6 8.8 85 1.2 N 28 39 15 21 1010.1 1010.2 0.0
29/01:00am 11.1 5.1 8.7 85 1.2 N 30 39 16 21 1010.1 - 0.0
29/12:30am 10.8 5.3 9.0 89 0.9 N 28 37 15 20 1010.7 1010.8 0.0
29/12:00am 11.0 6.2 9.0 87 1.0 NNW 24 32 13 17 1011.1 1011.2 0.0
 
Date/Time
CST
Temp
°C
App
Temp
°C
Dew
Point
Rel
Hum
%
Delta-T
°C
Wind Press
QNH
hPa
Press
MSL
hPa
Rain
since 9 am
mm
Dir
 
Spd
km/h
Gust
km/h
Spd
kts
Gust
kts
28/11:30pm 11.8 6.0 9.4 85 1.2 NNW 30 35 16 19 1011.1 1011.2 0.0
28/11:00pm 11.6 7.0 9.8 89 0.9 N 24 35 13 19 1011.6 - 0.0
28/10:30pm 11.3 7.1 9.7 90 0.8 NNW 22 30 12 16 1012.0 1012.1 0.0
28/10:00pm 11.3 6.2 9.3 87 1.0 NNW 26 35 14 19 1012.4 - 0.0
28/09:30pm 11.2 6.0 9.0 86 1.1 N 26 35 14 19 1012.5 1012.6 0.0
28/09:00pm 10.9 6.0 8.5 85 1.2 N 24 32 13 17 1012.5 1012.6 0.0
28/08:30pm 10.9 6.0 8.5 85 1.2 N 24 30 13 16 1012.7 1012.8 0.0
28/08:00pm 11.2 6.3 8.6 84 1.3 N 24 35 13 19 1012.7 - 0.0
28/07:30pm 11.6 7.1 8.6 82 1.5 NNW 22 33 12 18 1012.8 1012.9 0.0
28/07:00pm 11.9 7.9 8.9 82 1.5 N 20 30 11 16 1012.4 - 0.0
28/06:30pm 12.5 8.1 9.1 80 1.7 NNW 22 30 12 16 1012.5 1012.6 0.0
28/06:00pm 12.6 8.6 9.0 79 1.8 NNW 20 26 11 14 1012.7 1012.8 0.0
28/05:30pm 12.8 8.4 8.8 76 2.0 NNW 22 28 12 15 1012.6 1012.7 0.0
28/05:00pm 13.8 9.4 8.9 72 2.5 NNW 22 32 12 17 1012.4 - 0.0
28/04:30pm 14.8 10.0 8.7 67 3.1 NNW 24 33 13 18 1012.1 1012.2 0.0
28/04:00pm 15.4 10.1 8.5 63 3.5 NNW 26 39 14 21 1012.2 - 0.0
28/03:48pm 15.5 9.8 8.4 62 3.6 NW 28 46 15 25 1012.2 - 0.0
28/03:30pm 15.7 9.6 8.2 61 3.8 NW 30 44 16 24 1012.2 1012.3 0.0
28/03:00pm 15.6 9.2 8.5 62 3.6 NW 32 43 17 23 1012.4 1012.5 0.0
28/02:56pm 16.1 9.8 8.9 62 3.7 NW 32 50 17 27 1012.5 - 0.0
28/02:30pm 15.9 9.6 9.1 64 3.5 NW 32 43 17 23 1012.9 1013.0 0.0
28/02:00pm 15.7 8.8 8.7 63 3.6 NW 35 44 19 24 1013.1 - 0.0
28/01:30pm 15.9 9.3 8.7 62 3.7 NW 33 44 18 24 1013.3 1013.4 0.0
28/01:00pm 16.3 9.7 8.5 60 4.0 NW 33 46 18 25 1013.6 - 0.0
28/12:30pm 16.3 9.4 8.7 60 3.9 NW 35 48 19 26 1014.0 1014.1 0.0
28/12:00pm 16.2 10.5 9.7 65 3.4 NNW 30 46 16 25 1014.1 1014.2 0.0
28/11:30am 15.9 10.9 11.0 72 2.6 NNW 28 37 15 20 1014.7 1014.8 0.0
28/11:00am 14.7 9.3 10.9 78 2.0 NW 30 41 16 22 1015.2 - 0.0
28/10:30am 14.1 9.9 11.1 82 1.6 NNW 24 33 13 18 1015.3 1015.4 0.0
28/10:00am 12.2 8.0 9.6 84 1.3 NNW 22 28 12 15 1015.6 - 0.0
28/09:30am 11.1 7.1 8.9 86 1.1 NNW 20 28 11 15 1015.6 1015.7 0.0
28/09:00am 10.3 5.7 8.0 86 1.1 NNW 22 32 12 17 1015.4 1015.5 0.0
28/08:30am 9.6 5.4 7.3 85 1.1 N 19 26 10 14 1015.1 1015.2 0.0
28/08:00am 8.2 4.1 6.0 86 1.0 N 17 24 9 13 1015.2 - 0.0
28/07:30am 7.0 2.7 5.2 88 0.8 N 17 20 9 11 1015.2 1015.3 0.0
28/07:00am 7.1 3.2 5.3 88 0.8 NNW 15 20 8 11 1015.3 - 0.0
28/06:30am 7.6 3.4 5.6 87 0.9 N 17 22 9 12 1015.1 1015.2 0.0
28/06:00am 7.3 3.1 5.5 88 0.8 N 17 20 9 11 1015.0 1015.1 0.0
28/05:30am 7.0 3.4 5.2 88 0.8 N 13 17 7 9 1015.1 1015.2 0.0
28/05:00am 7.5 4.0 5.5 87 0.9 N 13 17 7 9 1015.2 - 0.0
28/04:30am 7.6 3.7 5.4 86 1.0 N 15 19 8 10 1015.3 1015.4 0.0
28/04:00am 7.2 3.2 4.9 85 1.0 N 15 19 8 10 1015.3 - 0.0
28/03:30am 7.9 4.0 5.2 83 1.2 N 15 20 8 11 1015.4 1015.5 0.0
28/03:00am 8.0 3.7 5.3 83 1.2 N 17 22 9 12 1015.5 1015.6 0.0
28/02:30am 7.9 4.3 5.2 83 1.2 NNW 13 17 7 9 1015.8 1015.9 0.0
28/02:00am 8.2 4.2 5.1 81 1.4 N 15 20 8 11 1015.9 - 0.0
28/01:30am 8.3 4.4 5.2 81 1.4 N 15 19 8 10 1016.0 1016.1 0.0
28/01:00am 8.2 4.3 5.5 83 1.2 N 15 17 8 9 1016.1 - 0.0
28/12:30am 8.2 4.8 5.8 85 1.1 NNW 13 17 7 9 1016.5 1016.6 0.0
28/12:00am 8.5 5.1 5.9 84 1.2 NNW 13 15 7 8 1016.7 1016.8 0.0
 
Date/Time
CST
Temp
°C
App
Temp
°C
Dew
Point
Rel
Hum
%
Delta-T
°C
Wind Press
QNH
hPa
Press
MSL
hPa
Rain
since 9 am
mm
Dir
 
Spd
km/h
Gust
km/h
Spd
kts
Gust
kts
27/11:30pm 9.4 5.3 6.1 80 1.5 N 17 22 9 12 1016.9 1017.0 0.0
27/11:00pm 9.4 5.3 6.4 81 1.4 N 17 20 9 11 1016.9 - 0.0
27/10:30pm 9.5 5.8 6.5 81 1.4 N 15 20 8 11 1017.3 1017.4 0.0
27/10:00pm 8.5 5.1 6.1 85 1.1 N 13 17 7 9 1017.5 - 0.0
27/09:30pm 9.3 6.0 6.5 83 1.3 NNW 13 15 7 8 1017.7 1017.8 0.0
27/09:00pm 9.6 6.3 6.6 81 1.4 N 13 17 7 9 1017.8 1017.9 0.0
27/08:30pm 10.8 6.8 6.8 76 1.9 N 17 24 9 13 1017.9 1018.0 0.0
27/08:00pm 11.8 7.3 7.0 72 2.3 N 20 28 11 15 1017.9 - 0.0
27/07:30pm 12.3 7.0 6.9 69 2.6 N 24 33 13 18 1017.3 1017.4 0.0
27/07:00pm 12.1 7.6 6.9 70 2.5 N 20 26 11 14 1018.0 - 0.0
27/06:30pm 11.7 7.4 7.1 73 2.2 N 19 22 10 12 1018.2 1018.3 0.0
27/06:00pm 11.7 8.3 7.6 76 2.0 N 15 20 8 11 1018.3 1018.4 0.0
27/05:30pm 12.2 8.2 8.1 76 2.0 N 19 26 10 14 1018.4 1018.5 0.0
27/05:00pm 13.2 9.0 8.2 71 2.5 N 20 30 11 16 1018.2 - 0.0
27/04:30pm 14.3 9.7 8.3 67 3.0 N 22 32 12 17 1018.2 1018.3 0.0
27/04:00pm 14.7 9.3 7.9 63 3.4 NNW 26 35 14 19 1018.2 - 0.0
27/03:30pm 15.7 9.8 7.5 58 4.1 NNW 28 39 15 21 1018.2 1018.3 0.0
27/03:00pm 15.5 9.3 7.7 59 3.9 NNW 30 41 16 22 1018.4 1018.5 0.0
27/02:30pm 15.1 8.5 7.9 62 3.6 NNW 32 46 17 25 1018.5 1018.6 0.0
27/02:00pm 15.2 9.5 8.5 64 3.4 NNW 28 39 15 21 1018.5 - 0.0
27/01:30pm 14.9 8.3 7.9 63 3.5 N 32 43 17 23 1018.5 1018.6 0.0
27/01:00pm 14.6 8.5 8.4 66 3.1 N 30 41 16 22 1019.3 - 0.0
27/12:30pm 14.1 8.7 7.8 66 3.1 NNW 26 35 14 19 1019.9 1020.0 0.0
27/12:00pm 13.7 7.9 7.8 67 2.9 NNW 28 39 15 21 1020.8 1020.9 0.0
27/11:30am 13.4 7.7 8.4 72 2.5 N 28 37 15 20 1021.3 1021.4 0.0
27/11:00am 12.4 7.4 7.9 74 2.2 N 24 37 13 20 1021.7 - 0.0
27/10:30am 11.8 5.9 7.7 76 2.0 NNW 28 41 15 22 1021.9 1022.0 0.0
27/10:00am 11.2 5.2 7.2 76 1.9 N 28 41 15 22 1022.2 - 0.0
27/09:30am 11.1 5.5 7.3 77 1.8 N 26 39 14 21 1022.1 1022.2 0.0
27/09:00am 9.9 5.0 6.7 80 1.5 N 22 32 12 17 1022.4 1022.5 0.2
27/08:30am 9.1 4.5 6.5 84 1.2 N 20 30 11 16 1022.4 1022.5 0.2
27/08:00am 8.5 3.9 6.5 87 0.9 N 20 28 11 15 1022.9 - 0.2
27/07:30am 8.0 4.0 6.5 90 0.7 N 17 22 9 12 1023.2 1023.4 0.2
27/07:00am 7.8 4.6 6.9 94 0.4 N 13 19 7 10 1023.8 - 0.2
27/06:30am 6.8 3.8 6.1 95 0.3 N 11 15 6 8 1023.7 1023.8 0.2
27/06:00am 6.2 3.1 5.7 97 0.2 N 11 13 6 7 1023.4 1023.6 0.2
27/05:30am 6.3 3.3 5.9 97 0.2 N 11 15 6 8 1023.7 1023.8 0.2
27/05:00am 6.6 3.3 6.2 97 0.2 N 13 17 7 9 1023.8 - 0.2
27/04:30am 6.7 3.4 6.3 97 0.2 N 13 17 7 9 1023.7 1023.8 0.2
27/04:00am 6.6 3.6 5.9 95 0.3 N 11 15 6 8 1023.9 - 0.2
27/03:30am 6.1 3.0 5.6 97 0.2 N 11 13 6 7 1024.1 1024.2 0.2
27/03:00am 6.4 3.4 6.2 99 0.1 N 11 13 6 7 1024.3 1024.4 0.2
27/02:30am 7.0 4.1 6.6 97 0.2 N 11 13 6 7 1024.4 1024.5 0.0
27/02:00am 7.4 4.5 6.7 95 0.3 N 11 15 6 8 1024.4 - 0.0
27/01:30am 7.5 4.4 7.3 99 0.1 NNE 13 17 7 9 1024.3 1024.4 0.0
27/01:00am 8.0 5.0 7.6 97 0.2 N 13 15 7 8 1024.5 - 0.0
27/12:30am 7.6 4.9 7.2 97 0.2 NNE 11 13 6 7 1024.7 1024.8 0.0
27/12:00am 7.7 5.0 7.3 97 0.2 N 11 13 6 7 1025.1 1025.2 0.0
 
Date/Time
CST
Temp
°C
App
Temp
°C
Dew
Point
Rel
Hum
%
Delta-T
°C
Wind Press
QNH
hPa
Press
MSL
hPa
Rain
since 9 am
mm
Dir
 
Spd
km/h
Gust
km/h
Spd
kts
Gust
kts
26/11:30pm 7.9 5.7 7.7 99 0.1 N 9 11 5 6 1025.5 1025.6 0.0
26/11:00pm 8.3 5.7 7.9 97 0.2 N 11 15 6 8 1025.6 - 0.0
26/10:30pm 8.5 6.0 8.1 97 0.2 N 11 13 6 7 1025.6 1025.7 0.0
26/10:00pm 8.1 5.5 7.9 99 0.1 N 11 13 6 7 1025.8 - 0.0
26/09:30pm 8.4 5.5 8.0 97 0.2 N 13 15 7 8 1026.1 1026.2 0.0
26/09:00pm 8.3 6.1 7.7 96 0.3 N 9 11 5 6 1026.1 1026.2 0.0
26/08:30pm 8.7 6.1 7.9 95 0.4 N 11 15 6 8 1026.2 1026.3 0.0
26/08:00pm 9.1 7.0 8.1 93 0.5 N 9 11 5 6 1026.1 - 0.0
26/07:30pm 9.6 7.1 8.4 92 0.6 N 11 13 6 7 1026.0 1026.1 0.0
26/07:00pm 10.1 8.4 8.2 88 0.9 NW 7 7 4 4 1025.8 - 0.0
26/06:30pm 10.7 8.4 8.9 89 0.9 NW 11 11 6 6 1025.7 1025.8 0.0

Other Formats:

Comma delimited format used in spreadsheet applications
http://www.bom.gov.au/fwo/IDS60801/IDS60801.94817.axf

JavaScript Object Notation format (JSON) in row-major order
http://www.bom.gov.au/fwo/IDS60801/IDS60801.94817.json